Time;durP1;ratioP1;P1;durP2;ratioP2;P2;SDS_P1;SDS_P2;PMS_P1;PMS_P2;Temp;Humidity;BMP_temperature;BMP_pressure;BME280_temperature;BME280_humidity;BME280_pressure;Samples;Min_cycle;Max_cycle;Signal;HPM_P1;HPM_P2
2024/05/01 00:00:15;;;;;;;3.60;2.50;;;;;;;11.47;84.20;99669.16;5301508;26;20087;-54
2024/05/01 00:02:41;;;;;;;4.40;2.67;;;;;;;11.44;84.60;99661.72;5304101;26;20021;-53
2024/05/01 00:05:06;;;;;;;8.65;2.30;;;;;;;11.42;84.35;99670.69;5337017;26;20004;-54
2024/05/01 00:07:31;;;;;;;3.03;2.25;;;;;;;11.52;84.27;99664.25;5315996;26;20016;-54
2024/05/01 00:09:57;;;;;;;7.80;3.20;;;;;;;11.60;84.43;99660.72;5278863;27;20039;-53
2024/05/01 00:12:22;;;;;;;8.68;4.30;;;;;;;11.58;86.04;99648.91;5307409;26;19998;-54
2024/05/01 00:14:47;;;;;;;12.77;4.38;;;;;;;11.63;86.24;99657.00;5294819;26;20014;-53
2024/05/01 00:17:12;;;;;;;8.35;3.75;;;;;;;11.53;86.48;99652.84;5281604;26;19997;-53
2024/05/01 00:19:41;;;;;;;6.03;3.72;;;;;;;11.45;86.21;99646.94;5294776;26;20001;-54
2024/05/01 00:22:06;;;;;;;8.65;4.25;;;;;;;11.38;86.21;99649.47;5295346;27;20446;-53
2024/05/01 00:24:32;;;;;;;10.68;3.45;;;;;;;11.27;86.19;99647.28;5283777;26;20003;-53
2024/05/01 00:26:57;;;;;;;8.15;3.17;;;;;;;11.20;85.58;99651.56;5292596;27;20095;-53
2024/05/01 00:29:22;;;;;;;4.53;2.47;;;;;;;11.17;85.70;99651.94;5295090;26;20368;-55
2024/05/01 00:31:48;;;;;;;5.05;2.47;;;;;;;11.20;86.17;99651.56;5295407;27;20002;-53
2024/05/01 00:34:13;;;;;;;5.82;2.53;;;;;;;11.22;85.69;99652.22;5282918;26;20029;-53
2024/05/01 00:36:39;;;;;;;3.58;2.35;;;;;;;10.94;85.78;99598.22;5283718;26;20003;-52
2024/05/01 00:39:05;;;;;;;3.92;2.22;;;;;;;11.39;85.21;99647.66;5296396;26;20023;-53
2024/05/01 00:41:30;;;;;;;4.07;2.00;;;;;;;11.44;85.47;99651.31;5295204;26;20005;-53
2024/05/01 00:43:56;;;;;;;3.80;2.15;;;;;;;11.51;85.14;99649.63;5295734;26;20014;-53
2024/05/01 00:46:22;;;;;;;5.07;2.45;;;;;;;11.57;85.15;99644.69;5291637;26;20544;-53
2024/05/01 00:48:48;;;;;;;3.33;2.33;;;;;;;11.55;84.37;99644.88;5277828;27;20003;-54
2024/05/01 00:51:14;;;;;;;4.68;2.70;;;;;;;11.51;85.46;99636.63;5284186;26;20019;-53
2024/05/01 00:53:40;;;;;;;4.10;2.58;;;;;;;11.47;85.05;99637.97;5273787;27;20884;-53
2024/05/01 00:56:07;;;;;;;5.15;2.30;;;;;;;11.45;84.64;99639.94;5284869;26;20016;-53
2024/05/01 00:58:34;;;;;;;5.95;2.47;;;;;;;11.52;84.63;99650.44;5284034;26;20013;-53
2024/05/01 01:00:59;;;;;;;6.57;2.33;;;;;;;11.43;84.85;99628.91;5290576;26;20001;-53
2024/05/01 01:03:25;;;;;;;5.22;2.85;;;;;;;11.64;84.82;99654.19;5290624;26;20481;-54
2024/05/01 01:05:53;;;;;;;4.70;2.55;;;;;;;11.77;84.72;99653.56;5301883;27;20005;-53
2024/05/01 01:08:19;;;;;;;9.73;3.97;;;;;;;11.71;84.43;99628.25;5283198;26;20774;-53
2024/05/01 01:10:44;;;;;;;6.93;4.45;;;;;;;11.80;84.07;99642.81;5298847;27;19997;-53
2024/05/01 01:13:09;;;;;;;7.90;3.85;;;;;;;11.73;84.75;99634.09;5285647;26;20014;-52
2024/05/01 01:15:35;;;;;;;5.28;3.15;;;;;;;11.67;84.35;99650.44;5287019;26;20475;-55
2024/05/01 01:18:01;;;;;;;4.95;2.58;;;;;;;11.57;84.35;99627.28;5295326;27;20587;-53
2024/05/01 01:20:26;;;;;;;5.90;2.65;;;;;;;11.51;84.84;99631.44;5291240;26;20006;-53
2024/05/01 01:22:52;;;;;;;4.00;2.88;;;;;;;11.38;84.54;99627.84;5264137;27;20022;-53
2024/05/01 01:25:17;;;;;;;6.22;3.33;;;;;;;11.31;85.22;99638.16;5285701;26;20013;-54
2024/05/01 01:27:43;;;;;;;4.60;2.78;;;;;;;11.15;85.17;99630.53;5287826;27;20007;-53
2024/05/01 01:30:08;;;;;;;6.28;4.43;;;;;;;11.11;86.78;99630.06;5297512;26;20477;-53
2024/05/01 01:32:34;;;;;;;10.25;4.78;;;;;;;10.76;86.59;99608.16;5288744;26;20006;-53
2024/05/01 01:35:00;;;;;;;6.78;3.85;;;;;;;10.80;86.89;99630.19;5286034;27;20079;-54
2024/05/01 01:37:25;;;;;;;6.15;3.17;;;;;;;10.74;86.94;99633.50;5293718;26;20484;-53
2024/05/01 01:39:50;;;;;;;12.77;4.85;;;;;;;10.61;86.94;99625.47;5291976;27;20007;-53
2024/05/01 01:42:16;;;;;;;10.70;4.75;;;;;;;10.57;87.62;99629.41;5288189;27;20001;-53
2024/05/01 01:44:41;;;;;;;10.65;4.18;;;;;;;10.49;88.41;99626.88;5296788;26;20002;-52
2024/05/01 01:47:06;;;;;;;10.38;4.20;;;;;;;10.40;88.33;99622.72;5297785;26;20025;-53
2024/05/01 01:49:32;;;;;;;10.02;4.30;;;;;;;10.39;87.76;99618.50;5306701;26;20013;-53
2024/05/01 01:51:57;;;;;;;6.90;3.58;;;;;;;10.31;88.31;99616.78;5304666;27;20017;-53
2024/05/01 01:54:22;;;;;;;4.75;3.33;;;;;;;10.25;88.03;99622.66;5299332;26;20016;-53
2024/05/01 01:56:48;;;;;;;7.47;3.20;;;;;;;10.20;87.93;99609.38;5309848;27;20369;-53
2024/05/01 01:59:13;;;;;;;9.43;3.58;;;;;;;10.23;88.27;99620.22;5301167;26;20552;-53
2024/05/01 02:01:39;;;;;;;8.90;3.42;;;;;;;10.20;88.05;99623.16;5272422;26;20482;-53
2024/05/01 02:04:05;;;;;;;6.72;3.40;;;;;;;10.20;88.00;99617.97;5301955;26;20005;-53
2024/05/01 02:06:30;;;;;;;6.55;2.38;;;;;;;10.25;87.84;99615.69;5288324;26;20420;-52
2024/05/01 02:08:56;;;;;;;3.45;2.47;;;;;;;10.33;87.38;99615.63;5290671;27;20003;-54
2024/05/01 02:11:21;;;;;;;2.85;2.08;;;;;;;10.38;87.24;99614.28;5301355;26;19997;-53
2024/05/01 02:13:47;;;;;;;7.97;3.40;;;;;;;10.38;87.95;99611.69;5294531;27;20003;-53
2024/05/01 02:16:13;;;;;;;8.90;3.78;;;;;;;10.32;87.39;99610.63;5294007;26;19997;-53
2024/05/01 02:18:39;;;;;;;8.38;4.97;;;;;;;10.27;88.10;99602.53;5293957;26;19998;-53
2024/05/01 02:21:04;;;;;;;10.95;4.63;;;;;;;9.83;88.29;99550.41;5302547;27;19998;-54
2024/05/01 02:23:30;;;;;;;7.45;3.80;;;;;;;10.09;87.96;99600.19;5290251;26;20485;-53
2024/05/01 02:25:55;;;;;;;9.63;3.78;;;;;;;10.08;88.25;99599.38;5299236;27;20002;-52
2024/05/01 02:28:20;;;;;;;6.38;2.90;;;;;;;9.90;88.07;99580.69;5310227;27;20074;-54
2024/05/01 02:30:46;;;;;;;7.43;3.95;;;;;;;10.00;88.67;99598.59;5302175;27;20628;-52
2024/05/01 02:33:12;;;;;;;9.18;3.85;;;;;;;9.96;89.27;99598.16;5295632;26;19998;-54
2024/05/01 02:35:37;;;;;;;10.88;3.67;;;;;;;9.89;89.00;99602.41;5295727;27;20042;-54
2024/05/01 02:38:03;;;;;;;7.35;3.08;;;;;;;9.51;88.69;99554.81;5286625;27;20002;-53
2024/05/01 02:40:28;;;;;;;3.55;2.53;;;;;;;9.86;88.64;99591.56;5293459;26;20016;-53
2024/05/01 02:42:53;;;;;;;4.10;2.25;;;;;;;9.92;88.59;99593.50;5291872;27;20003;-54
2024/05/01 02:45:19;;;;;;;6.63;3.67;;;;;;;9.95;88.89;99585.38;5303678;26;20002;-53
2024/05/01 02:47:44;;;;;;;4.05;2.63;;;;;;;9.93;88.65;99577.75;5302868;26;20079;-52
2024/05/01 02:50:10;;;;;;;4.45;2.63;;;;;;;9.95;88.59;99585.38;5303398;26;20013;-55
2024/05/01 02:52:35;;;;;;;4.85;3.17;;;;;;;9.92;89.00;99585.72;5290786;26;20458;-53
2024/05/01 02:55:01;;;;;;;4.55;2.80;;;;;;;9.88;88.53;99579.22;5305987;27;20002;-53
2024/05/01 02:57:26;;;;;;;3.55;2.00;;;;;;;9.84;88.01;99583.16;5296728;26;19997;-54
2024/05/01 02:59:51;;;;;;;2.53;2.05;;;;;;;9.87;88.16;99582.81;5303212;27;20007;-53
2024/05/01 03:02:17;;;;;;;3.10;2.58;;;;;;;9.90;88.90;99588.47;5303960;26;20008;-53
2024/05/01 03:04:42;;;;;;;3.67;2.00;;;;;;;9.72;88.86;99552.41;5290743;27;20079;-53
2024/05/01 03:07:07;;;;;;;4.03;2.22;;;;;;;9.90;88.39;99583.28;5304069;26;20016;-53
2024/05/01 03:09:33;;;;;;;4.63;3.25;;;;;;;9.93;89.41;99576.94;5294113;26;20014;-53
2024/05/01 03:11:58;;;;;;;5.05;2.85;;;;;;;9.88;89.33;99579.22;5302123;27;20076;-52
2024/05/01 03:14:24;;;;;;;8.98;3.58;;;;;;;9.85;89.54;99574.38;5303775;26;19997;-53
2024/05/01 03:16:49;;;;;;;6.15;2.95;;;;;;;9.83;89.18;99579.75;5303564;26;20005;-54
2024/05/01 03:19:15;;;;;;;5.07;3.15;;;;;;;9.86;89.59;99574.22;5307115;26;19998;-53
2024/05/01 03:21:43;;;;;;;8.32;4.03;;;;;;;9.86;89.90;99576.00;5293488;26;19998;-54
2024/05/01 03:24:09;;;;;;;9.05;3.85;;;;;;;9.52;89.62;99520.13;5304353;26;20473;-53
2024/05/01 03:26:35;;;;;;;7.57;3.10;;;;;;;9.84;90.10;99567.59;5300379;27;20046;-53
2024/05/01 03:29:01;;;;;;;6.07;3.75;;;;;;;9.80;89.59;99561.13;5303555;27;20006;-52
2024/05/01 03:31:26;;;;;;;7.32;3.55;;;;;;;9.74;89.68;99550.47;5308101;26;20024;-53
2024/05/01 03:33:52;;;;;;;5.70;3.60;;;;;;;8.93;89.96;99421.31;5294373;27;20022;-52
2024/05/01 03:36:17;;;;;;;12.75;5.05;;;;;;;9.79;90.57;99557.75;5300576;26;20620;-52
2024/05/01 03:38:42;;;;;;;10.63;4.80;;;;;;;9.75;90.28;99549.50;5305126;26;20466;-54
2024/05/01 03:41:16;;;;;;;5.22;3.58;;;;;;;9.62;90.04;99554.44;5305536;26;20485;-52
2024/05/01 03:43:42;;;;;;;6.63;3.78;;;;;;;9.43;90.97;99537.50;5299876;26;20002;-52
2024/05/01 03:46:07;;;;;;;6.32;4.05;;;;;;;9.45;90.28;99551.09;5309616;26;20349;-52
2024/05/01 03:48:32;;;;;;;3.45;3.03;;;;;;;9.37;90.43;99558.91;5302992;26;20486;-53
2024/05/01 03:50:58;;;;;;;6.45;3.13;;;;;;;9.33;90.73;99557.63;5299002;27;20001;-53
2024/05/01 03:53:23;;;;;;;3.50;2.47;;;;;;;9.30;90.38;99555.38;5309041;26;20012;-52
2024/05/01 03:55:48;;;;;;;3.80;2.35;;;;;;;9.31;90.75;99563.94;5300782;26;20024;-53
2024/05/01 03:58:14;;;;;;;4.57;3.05;;;;;;;9.33;90.54;99562.81;5304861;26;20036;-52
2024/05/01 04:00:39;;;;;;;4.57;2.58;;;;;;;9.35;90.37;99567.84;5297477;26;20001;-53
2024/05/01 04:03:05;;;;;;;4.25;2.10;;;;;;;9.40;90.48;99565.53;5305421;26;20006;-53
2024/05/01 04:05:30;;;;;;;3.20;2.25;;;;;;;9.50;90.78;99557.56;5302222;26;20038;-53
2024/05/01 04:07:56;;;;;;;4.28;2.95;;;;;;;9.55;90.38;99556.06;5298021;27;20014;-54
2024/05/01 04:10:22;;;;;;;4.43;3.40;;;;;;;9.53;90.46;99558.03;5306974;26;20001;-53
2024/05/01 04:12:47;;;;;;;7.55;3.28;;;;;;;9.49;89.90;99549.00;5304572;26;20100;-53
2024/05/01 04:15:13;;;;;;;5.43;3.40;;;;;;;9.48;90.04;99549.94;5305674;26;20005;-53
2024/05/01 04:17:39;;;;;;;3.70;2.60;;;;;;;9.47;90.40;99546.53;5301522;26;20353;-54
2024/05/01 04:20:06;;;;;;;4.53;3.35;;;;;;;9.25;89.84;99505.06;5308810;26;20458;-52
2024/05/01 04:22:32;;;;;;;5.18;3.60;;;;;;;9.46;89.76;99542.34;5302966;26;20013;-53
2024/05/01 04:24:57;;;;;;;3.72;2.72;;;;;;;9.50;89.65;99544.63;5303440;26;20022;-53
2024/05/01 04:27:22;;;;;;;4.28;2.38;;;;;;;9.55;89.55;99550.09;5308761;26;20071;-52
2024/05/01 04:29:48;;;;;;;6.65;3.28;;;;;;;9.63;89.99;99553.47;5295432;26;20014;-51
2024/05/01 04:32:13;;;;;;;4.75;2.78;;;;;;;9.68;89.87;99530.41;5274647;27;20328;-54
2024/05/01 04:34:38;;;;;;;3.63;2.30;;;;;;;9.86;89.02;99552.66;5272640;27;20731;-53
2024/05/01 04:37:04;;;;;;;4.75;2.33;;;;;;;9.95;89.13;99552.44;5281059;27;20016;-53
2024/05/01 04:39:29;;;;;;;3.38;2.30;;;;;;;10.05;89.23;99554.81;5282441;26;20002;-52
2024/05/01 04:41:54;;;;;;;7.38;2.38;;;;;;;10.19;89.12;99556.66;5275537;27;20016;-52
2024/05/01 04:44:19;;;;;;;4.25;2.45;;;;;;;10.36;88.16;99557.38;5274458;27;20002;-53
2024/05/01 04:46:45;;;;;;;3.05;2.10;;;;;;;10.19;87.83;99514.34;5274265;27;19998;-52
2024/05/01 04:49:10;;;;;;;5.03;3.20;;;;;;;10.46;88.25;99555.34;5274551;27;20069;-52
2024/05/01 04:51:35;;;;;;;4.28;3.05;;;;;;;10.48;87.63;99557.78;5273527;27;20002;-53
2024/05/01 04:54:01;;;;;;;9.73;3.38;;;;;;;10.49;87.97;99560.19;5273838;27;20017;-52
2024/05/01 04:56:26;;;;;;;4.82;3.25;;;;;;;10.58;87.69;99566.13;5274210;27;20013;-54
2024/05/01 04:58:51;;;;;;;6.00;3.38;;;;;;;10.61;87.30;99568.38;5273495;27;20010;-53
2024/05/01 05:01:17;;;;;;;6.45;3.53;;;;;;;10.66;87.14;99560.84;5274130;27;20069;-53
2024/05/01 05:03:42;;;;;;;8.02;4.07;;;;;;;10.71;87.51;99568.94;5273854;27;20010;-53
2024/05/01 05:06:07;;;;;;;4.90;3.03;;;;;;;10.78;86.95;99564.63;5273860;27;20014;-53
2024/05/01 05:08:33;;;;;;;4.43;2.63;;;;;;;10.73;87.05;99535.81;5274151;27;20568;-54
2024/05/01 05:10:58;;;;;;;8.65;4.45;;;;;;;10.98;87.43;99548.53;5298725;27;20603;-53
2024/05/01 05:13:23;;;;;;;7.45;3.95;;;;;;;11.00;87.21;99549.16;5297058;27;20006;-52
2024/05/01 05:15:49;;;;;;;10.40;5.05;;;;;;;11.03;87.01;99544.41;5306073;26;20013;-53
2024/05/01 05:18:15;;;;;;;8.57;4.43;;;;;;;11.05;87.10;99542.44;5307079;26;20002;-53
2024/05/01 05:20:40;;;;;;;14.30;5.15;;;;;;;11.16;87.25;99538.59;5306836;26;19998;-53
2024/05/01 05:23:06;;;;;;;10.05;4.60;;;;;;;11.21;86.56;99533.63;5307552;26;20029;-53
2024/05/01 05:25:31;;;;;;;10.73;4.18;;;;;;;11.30;86.53;99539.56;5279682;26;20009;-53
2024/05/01 05:27:56;;;;;;;7.93;3.78;;;;;;;11.49;86.11;99542.41;5242482;26;20078;-53
2024/05/01 05:30:21;;;;;;;8.13;4.28;;;;;;;11.58;86.24;99532.69;5277253;27;20002;-53
2024/05/01 05:32:47;;;;;;;6.55;3.63;;;;;;;11.74;85.48;99539.47;5250093;26;20022;-53
2024/05/01 05:35:12;;;;;;;7.32;4.05;;;;;;;11.95;84.85;99551.72;5286519;27;20012;-54
2024/05/01 05:37:38;;;;;;;7.65;3.90;;;;;;;12.09;84.40;99543.06;5282471;26;20025;-55
2024/05/01 05:40:03;;;;;;;8.27;4.72;;;;;;;12.29;84.77;99538.84;5271824;26;20003;-53
2024/05/01 05:42:29;;;;;;;8.70;3.75;;;;;;;12.47;84.17;99543.59;5244306;27;20035;-52
2024/05/01 05:44:54;;;;;;;8.27;4.15;;;;;;;12.65;83.79;99549.13;5245465;27;20415;-54
2024/05/01 05:47:20;;;;;;;4.72;3.05;;;;;;;12.77;83.35;99525.16;5244453;27;20057;-52
2024/05/01 05:49:45;;;;;;;8.73;4.45;;;;;;;13.06;83.08;99537.16;5245379;27;19995;-53
2024/05/01 05:52:10;;;;;;;6.03;4.05;;;;;;;13.26;82.16;99536.31;5243634;27;20002;-52
2024/05/01 05:54:36;;;;;;;6.28;3.40;;;;;;;13.48;82.01;99533.56;5246962;27;20006;-53
2024/05/01 05:57:01;;;;;;;11.50;4.18;;;;;;;13.50;81.21;99514.13;5246164;27;19999;-53
2024/05/01 05:59:26;;;;;;;6.68;3.65;;;;;;;13.80;81.20;99527.66;5315938;21;20071;-60
2024/05/01 06:01:52;;;;;;;5.40;3.63;;;;;;;13.99;80.97;99525.28;5351299;26;20349;-60
2024/05/01 06:04:17;;;;;;;8.32;4.28;;;;;;;14.15;80.70;99524.88;5328416;26;20008;-60
2024/05/01 06:06:42;;;;;;;7.95;4.47;;;;;;;14.25;79.43;99520.06;5342275;26;20000;-57
2024/05/01 06:09:08;;;;;;;7.80;4.38;;;;;;;14.35;79.60;99519.69;5337696;26;20001;-61
2024/05/01 06:11:33;;;;;;;8.70;5.35;;;;;;;14.48;78.99;99517.09;5345211;26;20000;-60
2024/05/01 06:13:58;;;;;;;7.50;4.32;;;;;;;14.61;78.81;99524.13;5308969;26;19997;-60
2024/05/01 06:16:24;;;;;;;8.98;5.15;;;;;;;14.75;78.23;99528.31;5289785;26;20005;-60
2024/05/01 06:18:49;;;;;;;10.00;4.82;;;;;;;14.87;79.00;99529.31;5339852;26;20009;-60
2024/05/01 06:21:14;;;;;;;8.90;4.75;;;;;;;14.98;77.91;99523.44;5319820;26;20008;-60
2024/05/01 06:23:40;;;;;;;14.38;5.28;;;;;;;15.08;77.55;99526.41;5320592;26;19997;-60
2024/05/01 06:26:05;;;;;;;12.30;5.22;;;;;;;15.21;77.71;99517.72;5336728;26;20009;-60
2024/05/01 06:28:30;;;;;;;14.15;5.88;;;;;;;15.35;75.90;99516.66;5324771;26;19994;-60
2024/05/01 06:30:56;;;;;;;5.70;3.95;;;;;;;15.41;73.55;99501.16;5337089;26;19993;-60
2024/05/01 06:33:21;;;;;;;6.63;3.85;;;;;;;15.62;74.13;99514.78;5299704;26;20020;-60
2024/05/01 06:35:46;;;;;;;6.57;4.30;;;;;;;15.75;74.04;99515.69;5292597;26;20259;-59
2024/05/01 06:38:12;;;;;;;6.88;4.28;;;;;;;15.87;74.25;99514.81;5307631;26;20006;-61
2024/05/01 06:40:37;;;;;;;9.20;3.95;;;;;;;15.92;74.16;99509.75;5282510;26;20079;-59
2024/05/01 06:43:03;;;;;;;9.10;5.10;;;;;;;16.05;74.02;99505.44;5306403;26;20380;-61
2024/05/01 06:45:29;;;;;;;8.77;4.57;;;;;;;16.17;72.93;99509.00;5299536;26;20052;-58
2024/05/01 06:47:54;;;;;;;5.50;3.63;;;;;;;16.26;72.78;99500.63;5315584;26;20459;-59
2024/05/01 06:50:19;;;;;;;7.35;3.50;;;;;;;16.40;72.67;99495.28;5303680;26;20354;-60
2024/05/01 06:52:45;;;;;;;7.90;4.18;;;;;;;16.10;71.83;99434.88;5310906;26;20467;-61
2024/05/01 06:55:10;;;;;;;8.15;3.88;;;;;;;16.57;71.00;99491.09;5308186;26;20073;-61
2024/05/01 06:57:36;;;;;;;9.40;4.25;;;;;;;16.76;70.61;99490.13;5283915;26;19998;-59
2024/05/01 07:00:02;;;;;;;7.47;4.75;;;;;;;16.91;68.95;99488.97;5312194;26;20230;-59
2024/05/01 07:02:28;;;;;;;4.20;2.72;;;;;;;17.02;68.83;99491.66;5300415;26;20002;-61
2024/05/01 07:04:53;;;;;;;8.52;3.53;;;;;;;17.16;68.41;99487.06;5288247;26;20009;-59
2024/05/01 07:07:18;;;;;;;5.38;3.00;;;;;;;17.31;67.61;99486.66;5308302;26;20079;-59
2024/05/01 07:09:44;;;;;;;4.68;3.00;;;;;;;17.49;67.03;99484.00;5286520;26;19995;-60
2024/05/01 07:12:09;;;;;;;5.47;3.15;;;;;;;17.66;65.75;99478.94;5308917;26;20002;-59
2024/05/01 07:14:34;;;;;;;10.00;4.45;;;;;;;17.81;63.41;99473.28;5329936;26;19996;-59
2024/05/01 07:16:59;;;;;;;5.45;3.47;;;;;;;17.93;62.97;99476.75;5337843;26;20001;-58
2024/05/01 07:19:25;;;;;;;7.90;3.35;;;;;;;18.04;61.56;99467.28;5308807;26;20009;-60
2024/05/01 07:21:50;;;;;;;4.00;2.63;;;;;;;18.12;61.62;99462.50;5314814;26;20001;-60
2024/05/01 07:24:16;;;;;;;7.22;3.28;;;;;;;18.24;60.41;99463.28;5330753;26;19998;-61
2024/05/01 07:26:42;;;;;;;5.47;2.72;;;;;;;18.44;60.58;99456.91;5310870;26;20412;-60
2024/05/01 07:29:07;;;;;;;5.40;3.03;;;;;;;18.71;60.38;99465.16;5313663;26;20036;-60
2024/05/01 07:31:32;;;;;;;3.35;2.67;;;;;;;18.85;59.85;99453.34;5300895;26;20002;-59
2024/05/01 07:33:58;;;;;;;7.38;3.40;;;;;;;19.06;60.19;99452.69;5314492;26;20047;-60
2024/05/01 07:36:23;;;;;;;10.00;3.40;;;;;;;19.16;58.89;99458.16;5309204;26;20013;-60
2024/05/01 07:38:48;;;;;;;5.20;3.03;;;;;;;19.17;58.67;99448.44;5336715;26;20000;-60
2024/05/01 07:41:14;;;;;;;4.93;2.38;;;;;;;19.23;58.55;99442.25;5343431;26;19997;-58
2024/05/01 07:43:39;;;;;;;3.90;2.33;;;;;;;19.52;58.51;99447.50;5334281;26;20001;-60
2024/05/01 07:46:04;;;;;;;8.70;3.08;;;;;;;19.69;56.87;99443.88;5325624;26;20008;-58
2024/05/01 07:48:30;;;;;;;6.45;2.17;;;;;;;19.77;56.86;99440.84;5328021;26;20017;-58
2024/05/01 07:50:55;;;;;;;5.38;3.38;;;;;;;19.99;56.37;99448.03;5318162;26;20501;-60
2024/05/01 07:53:20;;;;;;;4.97;2.60;;;;;;;20.12;54.93;99445.06;5309847;26;20458;-58
2024/05/01 07:55:46;;;;;;;4.55;3.13;;;;;;;20.29;53.02;99435.28;5335279;26;20341;-59
2024/05/01 07:58:11;;;;;;;6.88;2.90;;;;;;;20.40;52.10;99443.34;5291553;26;20483;-61
2024/05/01 08:00:38;;;;;;;6.05;3.50;;;;;;;20.55;51.60;99433.03;5316189;26;20013;-60
2024/05/01 08:03:03;;;;;;;4.55;2.90;;;;;;;20.74;51.23;99426.44;5305745;26;20006;-60
2024/05/01 08:05:29;;;;;;;6.28;2.95;;;;;;;20.79;48.58;99423.84;5315308;26;20015;-59
2024/05/01 08:07:54;;;;;;;5.75;2.50;;;;;;;20.79;48.72;99429.13;5342945;26;20001;-59
2024/05/01 08:10:19;;;;;;;4.32;2.53;;;;;;;20.99;48.55;99427.78;5308724;26;20072;-59
2024/05/01 08:12:45;;;;;;;5.85;2.50;;;;;;;21.24;48.43;99425.41;5292550;26;20019;-59
2024/05/01 08:15:10;;;;;;;6.15;3.00;;;;;;;21.43;47.79;99424.03;5292431;26;20073;-59
2024/05/01 08:17:35;;;;;;;6.00;2.55;;;;;;;21.42;47.12;99435.63;5295891;26;20084;-60
2024/05/01 08:20:01;;;;;;;6.63;2.38;;;;;;;21.51;46.66;99434.16;5300507;26;20006;-61
2024/05/01 08:22:26;;;;;;;5.70;1.90;;;;;;;21.72;46.41;99421.09;5308733;26;20017;-60
2024/05/01 08:24:51;;;;;;;5.25;2.58;;;;;;;21.72;44.82;99413.16;5308509;26;20013;-60
2024/05/01 08:27:17;;;;;;;7.18;2.72;;;;;;;21.86;44.96;99418.81;5307523;26;20002;-60
2024/05/01 08:29:42;;;;;;;4.78;2.83;;;;;;;22.03;44.40;99412.34;5291639;26;20056;-60
2024/05/01 08:32:07;;;;;;;5.68;2.83;;;;;;;22.04;44.02;99408.66;5298841;26;20012;-60
2024/05/01 08:34:33;;;;;;;4.20;2.45;;;;;;;22.08;44.04;99411.63;5298310;26;20049;-60
2024/05/01 08:36:58;;;;;;;4.68;2.55;;;;;;;22.25;45.25;99411.44;5330085;26;20020;-60
2024/05/01 08:39:23;;;;;;;5.45;2.38;;;;;;;22.47;45.95;99408.66;5309703;26;19998;-60
2024/05/01 08:41:50;;;;;;;4.28;1.90;;;;;;;22.66;45.43;99400.00;5316906;26;20319;-60
2024/05/01 08:44:15;;;;;;;3.35;2.10;;;;;;;22.83;45.46;99405.13;5314412;26;20241;-61
2024/05/01 08:46:42;;;;;;;2.70;2.03;;;;;;;22.98;44.69;99399.91;5302719;26;20010;-59
2024/05/01 08:49:10;;;;;;;2.60;2.00;;;;;;;23.10;45.01;99389.03;5308898;26;20078;-60
2024/05/01 08:51:37;;;;;;;6.07;2.72;;;;;;;23.19;45.08;99394.63;5292041;26;20415;-61
2024/05/01 08:54:04;;;;;;;3.03;2.05;;;;;;;23.31;45.51;99387.22;5320480;26;20416;-60
2024/05/01 08:56:30;;;;;;;2.83;1.60;;;;;;;23.53;45.06;99379.03;5312753;26;20077;-60
2024/05/01 08:58:56;;;;;;;7.47;2.95;;;;;;;23.54;43.68;99373.47;5302241;26;20018;-60
2024/05/01 09:01:22;;;;;;;6.65;2.35;;;;;;;23.62;43.47;99379.31;5313796;26;20020;-60
2024/05/01 09:03:48;;;;;;;7.22;2.50;;;;;;;23.57;43.56;99358.88;5306185;26;20002;-60
2024/05/01 09:06:15;;;;;;;4.70;2.53;;;;;;;23.73;42.68;99368.44;5307876;26;20016;-60
2024/05/01 09:08:48;;;;;;;3.63;2.17;;;;;;;23.91;43.12;99371.63;5322689;26;20005;-59
2024/05/01 09:11:15;;;;;;;4.03;2.42;;;;;;;24.14;43.43;99368.38;5318078;26;20022;-59
2024/05/01 09:13:58;;;;;;;3.60;2.20;;;;;;;24.34;42.27;99364.91;5305091;26;20350;-59
2024/05/01 09:16:23;;;;;;;;;;;;;;;24.25;41.71;99359.31;5305097;26;20425;-58
2024/05/01 09:18:50;;;;;;;3.97;2.22;;;;;;;24.30;41.57;99363.84;5300958;26;19926;-60
2024/05/01 09:21:16;;;;;;;4.28;2.13;;;;;;;24.50;41.31;99355.81;5339788;26;20001;-59
2024/05/01 09:23:43;;;;;;;4.65;2.00;;;;;;;24.64;41.35;99356.00;5341681;26;20004;-59
2024/05/01 09:26:12;;;;;;;4.72;1.80;;;;;;;24.84;40.07;99355.09;5307802;26;20008;-60
2024/05/01 09:28:37;;;;;;;3.92;1.98;;;;;;;24.96;39.93;99353.69;5312261;26;20017;-60
2024/05/01 09:31:03;;;;;;;5.63;2.70;;;;;;;25.08;39.95;99355.25;5314573;26;20005;-58
2024/05/01 09:33:28;;;;;;;3.90;2.30;;;;;;;25.20;39.72;99347.72;5302738;26;20006;-60
2024/05/01 09:35:57;;;;;;;2.70;2.10;;;;;;;25.26;39.39;99351.94;5304102;26;20006;-59
2024/05/01 09:38:23;;;;;;;3.80;2.08;;;;;;;25.34;39.19;99343.34;5298420;26;20335;-60
2024/05/01 09:41:06;;;;;;;6.65;2.47;;;;;;;25.40;38.71;99341.47;5301647;26;20478;-61
2024/05/01 09:44:01;;;;;;;3.38;2.42;;;;;;;25.60;39.53;99338.63;5295559;26;20084;-60
2024/05/01 09:46:27;;;;;;;4.20;2.60;;;;;;;25.84;39.08;99328.06;5297869;26;20046;-60
2024/05/01 09:48:54;;;;;;;5.63;2.13;;;;;;;25.84;38.51;99299.59;5303067;26;19998;-60
2024/05/01 09:51:20;;;;;;;2.67;2.15;;;;;;;26.19;38.21;99333.00;5299974;26;20025;-60
2024/05/01 09:53:47;;;;;;;3.75;2.25;;;;;;;26.33;37.70;99325.09;5301131;26;20470;-60
2024/05/01 09:56:13;;;;;;;4.28;1.83;;;;;;;26.45;36.83;99322.84;5306017;26;19997;-58
2024/05/01 09:58:38;;;;;;;4.75;2.10;;;;;;;26.64;37.57;99325.53;5300911;26;20009;-61
2024/05/01 10:01:07;;;;;;;5.38;2.47;;;;;;;26.77;37.01;99319.47;5314119;26;20008;-60
2024/05/01 10:03:36;;;;;;;6.20;2.33;;;;;;;26.94;36.53;99320.81;5305507;26;20004;-60
2024/05/01 10:06:01;;;;;;;5.05;2.60;;;;;;;27.00;34.94;99322.34;5319308;26;19997;-60
2024/05/01 10:08:29;;;;;;;4.13;2.63;;;;;;;26.66;34.80;99259.44;5299408;26;20009;-59
2024/05/01 10:10:55;;;;;;;6.75;2.80;;;;;;;27.15;34.56;99316.81;5306430;26;20443;-60
2024/05/01 10:13:22;;;;;;;3.92;2.13;;;;;;;27.28;35.81;99318.72;5301061;26;19997;-60
2024/05/01 10:16:05;;;;;;;4.40;2.80;;;;;;;27.38;35.98;99310.56;5328724;26;20087;-59
2024/05/01 10:18:31;;;;;;;4.47;2.80;;;;;;;27.50;34.73;99301.28;5304825;26;20021;-59
2024/05/01 10:21:03;;;;;;;6.65;2.78;;;;;;;27.50;34.12;99291.41;5309454;26;20006;-60
2024/05/01 10:23:34;;;;;;;4.00;2.15;;;;;;;27.62;34.85;99291.72;5303508;26;20398;-60
2024/05/01 10:26:02;;;;;;;5.10;2.30;;;;;;;27.80;34.46;99284.78;5313645;26;20015;-59
2024/05/01 10:28:32;;;;;;;8.68;2.53;;;;;;;28.01;34.30;99284.34;5305323;26;20025;-59
2024/05/01 10:31:04;;;;;;;6.00;2.65;;;;;;;28.15;34.07;99264.56;5312705;26;20038;-60
2024/05/01 10:33:31;;;;;;;4.85;2.50;;;;;;;28.33;33.14;99252.22;5309842;26;20002;-61
2024/05/01 10:36:01;;;;;;;7.00;2.17;;;;;;;28.61;33.62;99273.50;5313180;26;20068;-61
2024/05/01 10:38:27;;;;;;;7.30;2.20;;;;;;;28.73;33.47;99263.06;5307684;26;20009;-60
2024/05/01 10:40:52;;;;;;;5.72;2.40;;;;;;;28.75;33.01;99277.72;5318465;26;20010;-60
2024/05/01 10:43:18;;;;;;;7.65;2.53;;;;;;;28.61;32.96;99252.13;5312099;26;20019;-60
2024/05/01 10:45:43;;;;;;;5.60;2.60;;;;;;;28.55;32.02;99262.13;5307550;26;20084;-61
2024/05/01 10:48:08;;;;;;;7.03;2.50;;;;;;;28.54;32.53;99250.66;5316909;26;20001;-60
2024/05/01 10:50:34;;;;;;;4.93;2.20;;;;;;;28.58;32.37;99258.06;5311698;26;20017;-61
2024/05/01 10:53:00;;;;;;;9.07;3.42;;;;;;;28.67;32.15;99250.91;5314912;26;20457;-62
2024/05/01 10:55:25;;;;;;;10.40;4.20;;;;;;;29.04;31.24;99239.88;5309691;26;20157;-59
2024/05/01 10:58:01;;;;;;;10.48;3.88;;;;;;;29.62;30.20;99238.91;5312146;26;20431;-61
2024/05/01 11:00:27;;;;;;;8.70;3.70;;;;;;;29.98;29.23;99229.91;5310759;26;20019;-58
2024/05/01 11:02:56;;;;;;;12.20;5.55;;;;;;;30.20;29.09;99240.53;5322041;26;20017;-61
2024/05/01 11:05:22;;;;;;;15.88;9.30;;;;;;;30.35;28.74;99231.22;5313302;26;20005;-61
2024/05/01 11:07:51;;;;;;;10.82;5.78;;;;;;;30.40;27.73;99230.28;5311277;26;20083;-61
2024/05/01 11:10:17;;;;;;;;;;;;;;;30.54;28.47;99228.22;5321237;26;20004;-61
2024/05/01 11:12:55;;;;;;;6.63;3.38;;;;;;;30.85;27.90;99226.19;5309119;26;19966;-61
2024/05/01 11:15:25;;;;;;;7.60;3.45;;;;;;;31.10;27.74;99219.16;5313009;26;20036;-61
2024/05/01 11:17:50;;;;;;;7.70;3.17;;;;;;;31.39;27.48;99218.47;5313214;26;20366;-60
2024/05/01 11:20:16;;;;;;;10.98;3.10;;;;;;;31.55;26.75;99215.25;5317401;26;20005;-60
2024/05/01 11:22:44;;;;;;;8.40;3.13;;;;;;;31.78;26.56;99211.19;5308853;26;20414;-60
2024/05/01 11:25:10;;;;;;;8.80;3.28;;;;;;;32.07;26.56;99217.66;5319775;26;20009;-63
2024/05/01 11:27:35;;;;;;;10.57;3.38;;;;;;;32.02;25.07;99207.88;5308878;26;20076;-61